Time,TemperatureF,DewpointF,PressureIn,WindDirection,WindDirectionDegrees,WindSpeedMPH,WindSpeedGustMPH,Humidity,HourlyPrecipIn,Conditions,Clouds,dailyrainin,SoftwareType,DateUTC
2015-06-02 00:11:00,38.0,36.0,-100.00,South,184,3.0,4.0,91,-99.99,,,-99.99,,2015-06-02 08:11:00,
2015-06-02 00:21:00,38.0,36.0,-100.00,South,184,3.0,4.0,91,-99.99,,,-99.99,,2015-06-02 08:21:00,
2015-06-02 01:01:00,33.0,32.0,-100.00,SE,133,3.0,4.0,97,-99.99,,,-99.99,,2015-06-02 09:01:00,
2015-06-02 01:11:00,33.0,32.0,-100.00,SE,133,3.0,4.0,97,-99.99,,,-99.99,,2015-06-02 09:11:00,
2015-06-02 01:21:00,33.0,32.0,-100.00,SE,133,3.0,4.0,97,-99.99,,,-99.99,,2015-06-02 09:21:00,
2015-06-02 05:22:00,29.0,29.0,-100.00,SE,142,1.0,4.0,99,-99.99,,,-99.99,,2015-06-02 13:22:00,
2015-06-02 06:21:00,31.0,31.0,-100.00,SSE,167,2.0,4.0,98,-99.99,,,-99.99,,2015-06-02 14:21:00,
2015-06-02 06:43:00,33.0,32.0,-100.00,NNE,24,4.0,5.0,98,-99.99,,,-99.99,,2015-06-02 14:43:00,
2015-06-02 06:51:00,33.0,32.0,-100.00,NNE,24,4.0,5.0,98,-99.99,,,-99.99,,2015-06-02 14:51:00,
2015-06-02 07:03:00,33.0,32.0,-100.00,NNE,24,4.0,5.0,98,-99.99,,,-99.99,,2015-06-02 15:03:00,
2015-06-02 07:11:00,33.0,32.0,-100.00,NNE,24,4.0,5.0,98,-99.99,,,-99.99,,2015-06-02 15:11:00,
2015-06-02 07:21:00,33.0,32.0,-100.00,NNE,24,4.0,5.0,98,-99.99,,,-99.99,,2015-06-02 15:21:00,
2015-06-02 07:42:00,37.0,36.0,-100.00,WSW,255,2.0,4.0,98,-99.99,,,-99.99,,2015-06-02 15:42:00,
2015-06-02 07:52:00,37.0,36.0,-100.00,WSW,255,2.0,4.0,98,-99.99,,,-99.99,,2015-06-02 15:52:00,
2015-06-02 08:02:00,37.0,36.0,-100.00,WSW,255,2.0,4.0,98,-99.99,,,-99.99,,2015-06-02 16:02:00,
2015-06-02 08:11:00,37.0,36.0,-100.00,WSW,255,2.0,4.0,98,-99.99,,,-99.99,,2015-06-02 16:11:00,
2015-06-02 08:21:00,37.0,36.0,-100.00,WSW,255,2.0,4.0,98,-99.99,,,-99.99,,2015-06-02 16:21:00,
2015-06-02 08:52:00,40.0,39.0,-100.00,NE,35,3.0,6.0,97,-99.99,,,-99.99,,2015-06-02 16:52:00,
2015-06-02 09:02:00,40.0,39.0,-100.00,NE,35,3.0,6.0,97,-99.99,,,-99.99,,2015-06-02 17:02:00,
2015-06-02 09:12:00,40.0,39.0,-100.00,NE,35,3.0,6.0,97,-99.99,,,-99.99,,2015-06-02 17:12:00,
2015-06-02 09:22:00,40.0,39.0,-100.00,NE,35,3.0,6.0,97,-99.99,,,-99.99,,2015-06-02 17:22:00,
2015-06-02 10:43:00,46.0,40.0,-100.00,WNW,299,6.0,8.0,78,-99.99,,,-99.99,,2015-06-02 18:43:00,
2015-06-02 10:52:00,46.0,40.0,-100.00,WNW,299,6.0,8.0,78,-99.99,,,-99.99,,2015-06-02 18:52:00,
2015-06-02 11:03:00,46.0,40.0,-100.00,WNW,299,6.0,8.0,78,-99.99,,,-99.99,,2015-06-02 19:03:00,
2015-06-02 11:12:00,46.0,40.0,-100.00,WNW,299,6.0,8.0,78,-99.99,,,-99.99,,2015-06-02 19:12:00,
2015-06-02 11:21:00,46.0,40.0,-100.00,WNW,299,6.0,8.0,78,-99.99,,,-99.99,,2015-06-02 19:21:00,
2015-06-02 11:43:00,52.0,41.0,-100.00,NNW,333,5.0,10.0,66,-99.99,,,-99.99,,2015-06-02 19:43:00,
2015-06-02 11:52:00,52.0,41.0,-100.00,NNW,333,5.0,10.0,66,-99.99,,,-99.99,,2015-06-02 19:52:00,
2015-06-02 12:01:00,52.0,41.0,-100.00,NNW,333,5.0,10.0,66,-99.99,,,-99.99,,2015-06-02 20:01:00,
2015-06-02 12:11:00,52.0,41.0,-100.00,NNW,333,5.0,10.0,66,-99.99,,,-99.99,,2015-06-02 20:11:00,